createdAt,value
2018-07-31T00:00:41.728Z,94669.00
2018-07-31T00:03:13.768Z,94663.00
2018-07-31T00:05:45.535Z,94663.00
2018-07-31T00:08:17.503Z,94655.00
2018-07-31T00:10:49.573Z,94658.00
2018-07-31T00:13:21.368Z,94656.00
2018-07-31T00:15:53.635Z,94665.00
2018-07-31T00:18:26.107Z,94666.00
2018-07-31T00:24:06.144Z,94670.00
2018-07-31T00:26:38.277Z,94672.00
2018-07-31T00:29:10.463Z,94675.00
2018-07-31T00:31:42.812Z,94677.00
2018-07-31T00:34:14.972Z,94676.00
2018-07-31T00:36:46.973Z,94676.00
2018-07-31T00:39:20.103Z,94677.00
2018-07-31T00:41:52.643Z,94684.00
2018-07-31T00:44:25.322Z,94682.00
2018-07-31T00:46:57.426Z,94679.00
2018-07-31T00:49:29.592Z,94673.00
2018-07-31T00:52:01.344Z,94672.00
2018-07-31T00:54:33.377Z,94676.00
2018-07-31T00:57:05.946Z,94675.00
2018-07-31T00:59:38.124Z,94674.00
2018-07-31T01:02:09.952Z,94667.00
2018-07-31T01:04:42.341Z,94668.00
2018-07-31T01:07:14.293Z,94666.00
2018-07-31T01:09:46.270Z,94672.00
2018-07-31T01:12:18.285Z,94668.00
2018-07-31T01:14:50.402Z,94666.00
2018-07-31T01:17:22.279Z,94664.00
2018-07-31T01:19:54.527Z,94665.00
2018-07-31T01:22:26.433Z,94666.00
2018-07-31T01:24:59.500Z,94662.00
2018-07-31T01:27:31.587Z,94657.00
2018-07-31T01:30:03.633Z,94659.00
2018-07-31T01:32:36.082Z,94660.00
2018-07-31T01:35:08.444Z,94656.00
2018-07-31T01:37:40.455Z,94655.00
2018-07-31T01:40:12.367Z,94653.00
2018-07-31T01:42:44.197Z,94658.00
2018-07-31T01:45:16.258Z,94654.00
2018-07-31T01:47:51.080Z,94644.00
2018-07-31T01:50:23.179Z,94649.00
2018-07-31T01:52:55.422Z,94648.00
2018-07-31T01:55:27.201Z,94644.00
2018-07-31T01:57:59.177Z,94644.00
2018-07-31T02:00:31.949Z,94636.00
2018-07-31T02:03:04.047Z,94631.00
2018-07-31T02:05:35.154Z,94626.00
2018-07-31T02:08:07.235Z,94628.00
2018-07-31T02:10:39.275Z,94622.00
2018-07-31T02:13:11.686Z,94618.00
2018-07-31T02:15:43.382Z,94625.00
2018-07-31T02:18:15.234Z,94631.00
2018-07-31T02:20:47.458Z,94629.00
2018-07-31T02:23:19.298Z,94636.00
2018-07-31T02:25:52.238Z,94637.00
2018-07-31T02:28:23.932Z,94636.00
2018-07-31T02:30:56.284Z,94636.00
2018-07-31T02:33:28.436Z,94639.00
2018-07-31T02:36:00.302Z,94640.00
2018-07-31T02:38:32.351Z,94644.00
2018-07-31T02:41:04.430Z,94646.00
2018-07-31T02:43:36.356Z,94653.00
2018-07-31T02:46:08.255Z,94653.00
2018-07-31T02:48:40.706Z,94651.00
2018-07-31T02:51:13.100Z,94656.00
2018-07-31T02:53:45.863Z,94655.00
2018-07-31T02:56:19.529Z,94658.00
2018-07-31T02:58:51.426Z,94661.00
2018-07-31T03:01:23.301Z,94656.00
2018-07-31T03:03:54.841Z,94660.00
2018-07-31T03:06:27.135Z,94656.00
2018-07-31T03:08:59.245Z,94662.00
2018-07-31T03:11:31.379Z,94656.00
2018-07-31T03:14:04.196Z,94662.00
2018-07-31T03:16:35.928Z,94655.00
2018-07-31T03:19:07.930Z,94660.00
2018-07-31T03:21:39.886Z,94664.00
2018-07-31T03:24:12.114Z,94661.00
2018-07-31T03:26:44.076Z,94662.00
2018-07-31T03:29:16.239Z,94664.00
2018-07-31T03:31:48.302Z,94670.00
2018-07-31T03:34:20.459Z,94662.00
2018-07-31T03:36:52.241Z,94659.00
2018-07-31T03:39:24.292Z,94666.00
2018-07-31T03:41:56.853Z,94668.00
2018-07-31T03:44:28.714Z,94674.00
2018-07-31T03:47:00.578Z,94676.00
2018-07-31T03:49:33.297Z,94683.00
2018-07-31T03:52:05.017Z,94680.00
2018-07-31T03:54:36.965Z,94690.00
2018-07-31T03:57:08.713Z,94693.00
2018-07-31T03:59:40.639Z,94697.00
2018-07-31T04:02:12.855Z,94696.00
2018-07-31T04:04:45.074Z,94697.00
2018-07-31T04:07:16.892Z,94701.00
2018-07-31T04:09:49.200Z,94705.00
2018-07-31T04:12:20.876Z,94704.00
2018-07-31T04:14:52.665Z,94710.00
2018-07-31T04:17:25.283Z,94711.00
2018-07-31T04:19:57.074Z,94712.00
2018-07-31T04:22:29.044Z,94713.00
2018-07-31T04:25:01.751Z,94718.00
2018-07-31T04:27:34.043Z,94716.00
2018-07-31T04:30:06.115Z,94721.00
2018-07-31T04:32:39.186Z,94717.00
2018-07-31T04:35:11.082Z,94715.00
2018-07-31T04:37:43.026Z,94715.00
2018-07-31T04:40:15.080Z,94713.00
2018-07-31T04:42:47.044Z,94707.00
2018-07-31T04:45:18.970Z,94718.00
2018-07-31T04:47:50.890Z,94718.00
2018-07-31T04:50:22.736Z,94719.00
2018-07-31T04:52:55.114Z,94717.00
2018-07-31T04:55:27.095Z,94710.00
2018-07-31T04:57:59.170Z,94714.00
2018-07-31T05:00:31.308Z,94717.00
2018-07-31T05:03:03.415Z,94723.00
2018-07-31T05:05:36.034Z,94721.00
2018-07-31T05:08:08.236Z,94726.00
2018-07-31T05:10:40.542Z,94721.00
2018-07-31T05:13:12.085Z,94729.00
2018-07-31T05:15:44.357Z,94730.00
2018-07-31T05:18:16.397Z,94733.00
2018-07-31T05:20:48.355Z,94729.00
2018-07-31T05:23:20.132Z,94726.00
2018-07-31T05:25:51.779Z,94725.00
2018-07-31T05:28:23.974Z,94724.00
2018-07-31T05:30:55.825Z,94721.00
2018-07-31T05:33:28.794Z,94720.00
2018-07-31T05:36:00.854Z,94722.00
2018-07-31T05:38:32.702Z,94728.00
2018-07-31T05:41:04.522Z,94726.00
2018-07-31T05:43:36.684Z,94722.00
2018-07-31T05:46:09.264Z,94723.00
2018-07-31T05:48:41.419Z,94729.00
2018-07-31T05:51:13.342Z,94723.00
2018-07-31T05:53:44.826Z,94727.00
2018-07-31T05:56:16.834Z,94731.00
2018-07-31T05:58:49.207Z,94729.00
2018-07-31T06:01:21.392Z,94729.00
2018-07-31T06:03:53.238Z,94730.00
2018-07-31T06:06:24.095Z,94732.00
2018-07-31T06:08:54.974Z,94730.00
2018-07-31T06:11:25.924Z,94723.00
2018-07-31T06:13:56.867Z,94726.00
2018-07-31T06:16:27.809Z,94724.00
2018-07-31T06:18:58.892Z,94728.00
2018-07-31T06:21:29.801Z,94727.00
2018-07-31T06:24:00.766Z,94726.00
2018-07-31T06:26:32.388Z,94727.00
2018-07-31T06:29:03.361Z,94729.00
2018-07-31T06:31:34.371Z,94731.00
2018-07-31T06:34:05.572Z,94731.00
2018-07-31T06:36:36.731Z,94729.00
2018-07-31T06:39:10.423Z,94735.00
2018-07-31T06:41:41.280Z,94733.00
2018-07-31T06:44:12.164Z,94728.00
2018-07-31T06:46:43.078Z,94731.00
2018-07-31T06:49:14.044Z,94734.00
2018-07-31T06:51:44.393Z,94725.00
2018-07-31T06:54:15.355Z,94726.00
2018-07-31T06:56:46.297Z,94726.00
2018-07-31T06:59:17.157Z,94729.00
2018-07-31T07:01:48.178Z,94733.00
2018-07-31T07:04:19.135Z,94731.00
2018-07-31T07:06:50.168Z,94730.00
2018-07-31T07:09:21.215Z,94729.00
2018-07-31T07:11:52.132Z,94728.00
2018-07-31T07:14:22.971Z,94727.00
2018-07-31T07:16:53.851Z,94721.00
2018-07-31T07:19:24.756Z,94723.00
2018-07-31T07:21:55.583Z,94725.00
2018-07-31T07:24:26.492Z,94729.00
2018-07-31T07:26:57.623Z,94731.00
2018-07-31T07:29:28.622Z,94731.00
2018-07-31T07:31:59.638Z,94730.00
2018-07-31T07:34:30.566Z,94729.00
2018-07-31T07:37:01.500Z,94727.00
2018-07-31T07:39:32.368Z,94730.00
2018-07-31T07:42:03.110Z,94733.00
2018-07-31T07:44:34.016Z,94729.00
2018-07-31T07:47:05.027Z,94734.00
2018-07-31T07:49:35.377Z,94739.00
2018-07-31T07:52:06.304Z,94742.00
2018-07-31T07:54:37.042Z,94745.00
2018-07-31T07:57:08.459Z,94739.00
2018-07-31T07:59:39.458Z,94747.00
2018-07-31T08:02:10.346Z,94745.00
2018-07-31T08:04:41.402Z,94744.00
2018-07-31T08:07:12.361Z,94743.00
2018-07-31T08:09:43.272Z,94743.00
2018-07-31T08:12:14.418Z,94744.00
2018-07-31T08:14:45.336Z,94748.00
2018-07-31T08:17:16.288Z,94746.00
2018-07-31T08:19:47.312Z,94749.00
2018-07-31T08:22:48.198Z,94739.00
2018-07-31T08:25:19.259Z,94747.00
2018-07-31T08:27:50.254Z,94744.00
2018-07-31T08:30:27.263Z,94738.00
2018-07-31T08:32:59.559Z,94740.00
2018-07-31T08:35:30.402Z,94738.00
2018-07-31T08:38:01.449Z,94740.00
2018-07-31T08:40:32.244Z,94740.00
2018-07-31T08:43:03.287Z,94734.00
2018-07-31T08:45:34.363Z,94731.00
2018-07-31T08:48:05.235Z,94726.00
2018-07-31T08:50:35.731Z,94727.00
2018-07-31T08:53:07.412Z,94722.00
2018-07-31T08:55:38.411Z,94724.00
2018-07-31T08:58:09.323Z,94717.00
2018-07-31T09:00:40.338Z,94715.00
2018-07-31T09:03:11.228Z,94715.00
2018-07-31T09:05:42.082Z,94715.00
2018-07-31T09:08:13.037Z,94715.00
2018-07-31T09:10:44.199Z,94706.00
2018-07-31T09:13:15.074Z,94702.00
2018-07-31T09:15:46.056Z,94699.00
2018-07-31T09:18:16.487Z,94697.00
2018-07-31T09:20:47.388Z,94697.00
2018-07-31T09:23:18.318Z,94691.00
2018-07-31T09:25:49.360Z,94694.00
2018-07-31T09:28:20.416Z,94688.00
2018-07-31T09:30:56.512Z,94690.00
2018-07-31T09:33:27.472Z,94688.00
2018-07-31T09:35:58.575Z,94684.00
2018-07-31T09:38:29.459Z,94686.00
2018-07-31T09:41:00.779Z,94679.00
2018-07-31T09:43:32.112Z,94690.00
2018-07-31T09:46:02.896Z,94681.00
2018-07-31T09:48:33.699Z,94676.00
2018-07-31T09:51:04.540Z,94676.00
2018-07-31T09:53:35.338Z,94672.00
2018-07-31T09:56:06.267Z,94668.00
2018-07-31T09:58:37.241Z,94669.00
2018-07-31T10:01:13.223Z,94663.00
2018-07-31T10:03:44.096Z,94661.00
2018-07-31T10:06:14.941Z,94658.00
2018-07-31T10:08:46.031Z,94658.00
2018-07-31T10:11:16.940Z,94656.00
2018-07-31T10:13:47.860Z,94654.00
2018-07-31T10:16:18.891Z,94649.00
2018-07-31T10:18:49.955Z,94650.00
2018-07-31T10:21:21.108Z,94650.00
2018-07-31T10:23:52.187Z,94657.00
2018-07-31T10:31:02.287Z,94645.00
2018-07-31T10:33:33.279Z,94647.00
2018-07-31T10:36:04.255Z,94646.00
2018-07-31T10:38:35.339Z,94645.00
2018-07-31T10:41:06.295Z,94653.00
2018-07-31T10:43:37.168Z,94648.00
2018-07-31T10:46:08.086Z,94646.00
2018-07-31T10:48:40.023Z,94644.00
2018-07-31T10:51:10.892Z,94638.00
2018-07-31T10:53:41.782Z,94639.00
2018-07-31T10:56:12.731Z,94637.00
2018-07-31T10:58:43.752Z,94632.00
2018-07-31T11:01:14.696Z,94636.00
2018-07-31T11:03:45.687Z,94637.00
2018-07-31T11:06:16.562Z,94627.00
2018-07-31T11:08:47.611Z,94625.00
2018-07-31T11:11:18.440Z,94629.00
2018-07-31T11:13:49.449Z,94621.00
2018-07-31T11:16:20.306Z,94629.00
2018-07-31T11:18:51.158Z,94627.00
2018-07-31T11:21:21.985Z,94636.00
2018-07-31T11:23:52.870Z,94626.00
2018-07-31T11:26:23.897Z,94627.00
2018-07-31T11:28:55.030Z,94627.00
2018-07-31T11:31:26.284Z,94619.00
2018-07-31T11:33:57.396Z,94620.00
2018-07-31T11:36:28.271Z,94612.00
2018-07-31T11:38:59.267Z,94622.00
2018-07-31T11:41:30.251Z,94612.00
2018-07-31T11:44:01.338Z,94618.00
2018-07-31T11:46:32.139Z,94625.00
2018-07-31T11:49:03.021Z,94624.00
2018-07-31T11:51:33.939Z,94631.00
2018-07-31T11:54:04.946Z,94637.00
2018-07-31T11:56:35.802Z,94627.00
2018-07-31T11:59:06.653Z,94617.00
2018-07-31T12:01:37.713Z,94619.00
2018-07-31T12:04:09.729Z,94620.00
2018-07-31T12:06:40.809Z,94623.00
2018-07-31T12:09:13.533Z,94632.00
2018-07-31T12:11:45.134Z,94634.00
2018-07-31T12:14:16.929Z,94644.00
2018-07-31T12:16:48.800Z,94641.00
2018-07-31T12:19:20.053Z,94648.00
2018-07-31T12:21:51.139Z,94652.00
2018-07-31T12:24:22.209Z,94664.00
2018-07-31T12:26:53.385Z,94663.00
2018-07-31T12:29:24.698Z,94679.00
2018-07-31T12:31:55.817Z,94679.00
2018-07-31T12:34:26.822Z,94678.00
2018-07-31T12:36:57.702Z,94683.00
2018-07-31T12:39:28.612Z,94681.00
2018-07-31T12:41:59.668Z,94680.00
2018-07-31T12:44:30.632Z,94685.00
2018-07-31T12:47:01.780Z,94689.00
2018-07-31T12:49:32.844Z,94695.00
2018-07-31T12:52:03.883Z,94688.00
2018-07-31T12:54:34.937Z,94686.00
2018-07-31T12:57:06.220Z,94689.00
2018-07-31T12:59:37.553Z,94692.00
2018-07-31T13:02:08.909Z,94692.00
2018-07-31T13:04:40.067Z,94691.00
2018-07-31T13:07:11.276Z,94692.00
2018-07-31T13:09:42.366Z,94686.00
2018-07-31T13:12:13.470Z,94683.00
2018-07-31T13:14:44.559Z,94683.00
2018-07-31T13:17:15.705Z,94683.00
2018-07-31T13:19:46.673Z,94696.00
2018-07-31T13:22:17.827Z,94705.00
2018-07-31T13:24:49.368Z,94706.00
2018-07-31T13:27:20.634Z,94715.00
2018-07-31T13:29:51.791Z,94716.00
2018-07-31T13:32:22.904Z,94717.00
2018-07-31T13:34:53.423Z,94726.00
2018-07-31T13:37:24.290Z,94735.00
2018-07-31T13:39:54.860Z,94748.00
2018-07-31T13:42:25.769Z,94746.00
2018-07-31T13:44:58.313Z,94745.00
2018-07-31T13:47:29.390Z,94742.00
2018-07-31T13:50:00.605Z,94733.00
2018-07-31T13:52:31.625Z,94728.00
2018-07-31T13:55:02.690Z,94732.00
2018-07-31T13:57:33.942Z,94722.00
2018-07-31T14:00:05.768Z,94721.00
2018-07-31T14:02:36.863Z,94723.00
2018-07-31T14:05:07.891Z,94723.00
2018-07-31T14:07:38.907Z,94727.00
2018-07-31T14:10:09.897Z,94727.00
2018-07-31T14:12:41.217Z,94721.00
2018-07-31T14:15:11.833Z,94718.00
2018-07-31T14:17:43.912Z,94719.00
2018-07-31T14:20:15.255Z,94715.00
2018-07-31T14:22:46.414Z,94714.00
2018-07-31T14:25:17.545Z,94711.00
2018-07-31T14:27:48.686Z,94711.00
2018-07-31T14:30:19.666Z,94712.00
2018-07-31T14:32:50.587Z,94709.00
2018-07-31T14:35:21.751Z,94713.00
2018-07-31T14:37:52.772Z,94716.00
2018-07-31T14:40:23.967Z,94718.00
2018-07-31T14:42:55.216Z,94726.00
2018-07-31T14:45:26.352Z,94722.00
2018-07-31T14:47:57.431Z,94730.00
2018-07-31T14:50:28.566Z,94737.00
2018-07-31T14:52:59.595Z,94738.00
2018-07-31T14:55:30.738Z,94737.00
2018-07-31T16:48:32.696Z,94703.00
2018-07-31T16:51:04.657Z,94709.00
2018-07-31T16:53:36.206Z,94712.00
2018-07-31T16:56:09.251Z,94713.00
2018-07-31T16:58:42.407Z,94712.00
2018-07-31T17:01:14.472Z,94716.00
2018-07-31T17:03:46.426Z,94711.00
2018-07-31T17:06:18.719Z,94710.00
2018-07-31T17:08:51.055Z,94718.00
2018-07-31T17:11:23.393Z,94723.00
2018-07-31T17:13:56.182Z,94728.00
2018-07-31T17:16:28.327Z,94731.00
2018-07-31T17:19:00.766Z,94734.00
2018-07-31T17:21:32.971Z,94731.00
2018-07-31T17:24:05.121Z,94741.00
2018-07-31T17:26:37.210Z,94740.00
2018-07-31T17:29:09.598Z,94747.00
2018-07-31T17:34:48.729Z,94757.00
2018-07-31T17:37:21.258Z,94770.00
2018-07-31T17:39:53.893Z,94772.00
2018-07-31T17:42:26.328Z,94777.00
2018-07-31T17:44:58.553Z,94778.00
2018-07-31T17:47:31.181Z,94786.00
2018-07-31T17:50:03.742Z,94781.00
2018-07-31T17:52:36.699Z,94784.00
2018-07-31T17:55:10.041Z,94790.00
2018-07-31T17:57:42.013Z,94794.00
2018-07-31T18:00:14.497Z,94806.00
2018-07-31T18:02:48.212Z,94809.00
2018-07-31T18:05:20.742Z,94814.00
2018-07-31T18:07:53.981Z,94817.00
2018-07-31T18:10:26.469Z,94829.00
2018-07-31T18:12:59.369Z,94829.00
2018-07-31T18:15:32.587Z,94826.00
2018-07-31T18:18:05.529Z,94834.00
2018-07-31T18:20:38.121Z,94835.00
2018-07-31T18:23:10.675Z,94835.00
2018-07-31T18:25:43.760Z,94835.00
2018-07-31T18:28:16.749Z,94831.00
2018-07-31T18:30:50.015Z,94827.00
2018-07-31T18:33:25.852Z,94827.00
2018-07-31T18:36:00.904Z,94826.00
2018-07-31T18:38:36.449Z,94834.00
2018-07-31T18:41:14.834Z,94840.00
2018-07-31T18:43:47.851Z,94844.00
2018-07-31T18:46:22.239Z,94841.00
2018-07-31T18:48:55.439Z,94833.00
2018-07-31T18:51:28.684Z,94834.00
2018-07-31T18:54:02.949Z,94837.00
2018-07-31T18:56:36.449Z,94837.00
2018-07-31T18:59:10.939Z,94836.00
2018-07-31T19:01:45.675Z,94826.00
2018-07-31T19:04:22.885Z,94819.00
2018-07-31T19:06:56.204Z,94818.00
2018-07-31T19:09:30.440Z,94820.00
2018-07-31T19:12:05.929Z,94820.00
2018-07-31T19:14:40.528Z,94824.00
2018-07-31T19:17:14.408Z,94826.00
2018-07-31T19:19:49.747Z,94827.00
2018-07-31T19:22:23.809Z,94823.00
2018-07-31T19:24:57.818Z,94817.00
2018-07-31T19:27:30.945Z,94814.00
2018-07-31T19:30:04.445Z,94820.00
2018-07-31T19:32:38.339Z,94824.00
2018-07-31T19:35:11.951Z,94823.00
2018-07-31T19:37:47.682Z,94820.00
2018-07-31T19:40:23.235Z,94828.00
2018-07-31T19:42:57.575Z,94827.00
2018-07-31T19:45:31.849Z,94827.00
2018-07-31T19:48:04.692Z,94825.00
2018-07-31T19:50:37.629Z,94821.00
2018-07-31T19:53:10.650Z,94824.00
2018-07-31T19:55:45.285Z,94821.00
2018-07-31T19:58:22.804Z,94818.00
2018-07-31T20:00:59.320Z,94822.00
2018-07-31T20:03:37.551Z,94815.00
2018-07-31T20:06:10.938Z,94820.00
2018-07-31T20:08:55.681Z,94824.00
2018-07-31T20:11:30.348Z,94830.00
2018-07-31T20:14:05.728Z,94839.00
2018-07-31T20:16:39.865Z,94837.00
2018-07-31T20:19:17.865Z,94842.00
2018-07-31T20:21:54.042Z,94843.00
2018-07-31T20:24:30.253Z,94840.00
2018-07-31T20:27:05.031Z,94838.00
2018-07-31T20:29:39.628Z,94839.00
2018-07-31T20:32:14.125Z,94842.00
2018-07-31T20:34:48.428Z,94845.00
2018-07-31T20:37:22.797Z,94845.00
2018-07-31T20:39:58.850Z,94847.00
2018-07-31T20:42:37.464Z,94844.00
2018-07-31T20:45:17.278Z,94848.00
2018-07-31T20:47:54.761Z,94850.00
2018-07-31T20:50:29.387Z,94844.00
2018-07-31T20:53:03.972Z,94843.00
2018-07-31T20:55:37.625Z,94840.00
2018-07-31T20:58:11.846Z,94851.00
2018-07-31T21:00:45.079Z,94851.00
2018-07-31T21:03:21.859Z,94856.00
2018-07-31T21:05:55.305Z,94849.00
2018-07-31T21:08:28.448Z,94848.00
2018-07-31T21:11:06.619Z,94860.00
2018-07-31T21:13:42.490Z,94860.00
2018-07-31T21:16:16.057Z,94861.00
2018-07-31T21:18:49.971Z,94863.00
2018-07-31T21:21:22.636Z,94860.00
2018-07-31T21:23:57.093Z,94855.00
2018-07-31T21:26:30.694Z,94847.00
2018-07-31T21:29:05.075Z,94844.00
2018-07-31T21:31:40.494Z,94847.00
2018-07-31T21:34:14.927Z,94855.00
2018-07-31T21:36:51.599Z,94856.00
2018-07-31T21:39:25.389Z,94851.00
2018-07-31T21:42:00.602Z,94846.00
2018-07-31T21:44:34.012Z,94847.00
2018-07-31T21:47:07.966Z,94856.00
2018-07-31T21:49:42.832Z,94857.00
2018-07-31T21:52:17.250Z,94856.00
2018-07-31T21:54:53.892Z,94846.00
2018-07-31T21:57:28.262Z,94841.00
2018-07-31T22:00:05.740Z,94844.00
2018-07-31T22:02:39.077Z,94840.00
2018-07-31T22:05:12.524Z,94840.00
2018-07-31T22:07:45.379Z,94842.00
2018-07-31T22:10:20.896Z,94843.00
2018-07-31T22:12:54.789Z,94846.00
2018-07-31T22:15:27.908Z,94847.00
2018-07-31T22:18:01.711Z,94843.00
2018-07-31T22:20:34.786Z,94838.00
2018-07-31T22:23:08.217Z,94839.00
2018-07-31T22:25:41.769Z,94841.00
2018-07-31T22:28:15.179Z,94838.00
2018-07-31T22:30:48.027Z,94838.00
2018-07-31T22:33:21.092Z,94840.00
2018-07-31T22:35:53.963Z,94838.00
2018-07-31T22:38:27.113Z,94835.00
2018-07-31T22:40:59.636Z,94830.00
2018-07-31T22:43:32.879Z,94824.00
2018-07-31T22:46:06.566Z,94822.00
2018-07-31T22:48:39.622Z,94818.00
2018-07-31T22:51:13.388Z,94817.00
2018-07-31T22:53:45.867Z,94822.00
2018-07-31T22:56:19.291Z,94829.00
2018-07-31T22:58:54.736Z,94832.00
2018-07-31T23:01:27.975Z,94833.00
2018-07-31T23:04:03.184Z,94834.00
2018-07-31T23:06:36.730Z,94830.00
2018-07-31T23:09:13.659Z,94827.00
2018-07-31T23:11:46.578Z,94824.00
2018-07-31T23:14:20.806Z,94830.00
2018-07-31T23:16:55.155Z,94824.00
2018-07-31T23:19:29.103Z,94818.00
2018-07-31T23:22:02.445Z,94824.00
2018-07-31T23:24:35.533Z,94814.00
2018-07-31T23:27:07.620Z,94814.00
2018-07-31T23:29:41.194Z,94811.00
2018-07-31T23:32:15.002Z,94811.00
2018-07-31T23:34:48.337Z,94811.00
2018-07-31T23:37:21.624Z,94810.00
2018-07-31T23:39:54.722Z,94805.00
2018-07-31T23:42:27.514Z,94803.00
2018-07-31T23:45:00.817Z,94799.00
2018-07-31T23:47:35.297Z,94805.00
2018-07-31T23:50:08.630Z,94806.00
2018-07-31T23:52:41.682Z,94806.00
2018-07-31T23:55:14.703Z,94815.00
2018-07-31T23:57:54.210Z,94816.00
